Monday, February 18, 2019, 5:17 AM EST
Back to Local

KRUT, Rutland, Rutland-southern Vermont Regional Airport

Location: North Clarendon, VT, United States Lat: 43.533
Local Time: 5:17 AM EST (10:17 GMT) Lon: -72.95
Time Zone: US/Eastern Elev: 787 ft

Show me the last for .
Show Decoded

2019-02-18 04:56 METAR KRUT 180956Z AUTO 01005KT 9SM -SN OVC037 M09/M11 A2986 RMK AO2 SNE18B48
                 SLP134 P0000 T10941106 FZRANO $ =
2019-02-18 03:56 METAR KRUT 180856Z AUTO 35003KT 5SM -SN BR SCT034 OVC044 M09/M11 A2988 RMK AO2
                 SLP140 P0000 60000 T10941106 58021 FZRANO $ =
2019-02-18 02:56 METAR KRUT 180756Z AUTO 35005KT 5SM -SN BR FEW016 SCT035 OVC050 M09/M11 A2992
                 RMK AO2 SLP153 P0000 T10941106 FZRANO $ =
2019-02-18 02:43 METAR KRUT 180743Z AUTO 00000KT 3SM -SN BR SCT012 SCT021 OVC050 M09/M11 A2993
                 RMK AO2 P0000 FZRANO $ =
2019-02-18 02:38 METAR KRUT 180738Z AUTO 33003KT 2SM -SN BR SCT012 BKN022 OVC050 M09/M11 A2992
                 RMK AO2 P0000 FZRANO $ =
2019-02-18 02:34 METAR KRUT 180734Z AUTO 33004KT 1SM -SN BR SCT012 BKN022 OVC026 M09/M11 A2992
                 RMK AO2 P0000 FZRANO $ =
2019-02-18 02:27 METAR KRUT 180727Z AUTO 35003KT 3/4SM -SN BR BKN012 BKN016 OVC026 M09/M11 A2993
                 RMK AO2 P0000 FZRANO $ =
2019-02-18 02:22 METAR KRUT 180722Z AUTO 34004KT 1 1/4SM -SN BR BKN014 BKN026 OVC033 M09/M11
                 A2993 RMK AO2 P0000 FZRANO $ =
2019-02-18 02:06 METAR KRUT 180706Z AUTO 00000KT 2SM -SN SCT017 BKN028 OVC050 M08/M12 A2994 RMK
                 AO2 P0000 FZRANO $ =
2019-02-18 02:02 METAR KRUT 180702Z AUTO 35003KT 2SM -SN SCT017 BKN032 OVC075 M08/M12 A2994 RMK
                 AO2 P0000 FZRANO $ =
2019-02-18 01:56 METAR KRUT 180656Z AUTO 00000KT 3SM -SN BKN019 BKN029 OVC075 M08/M12 A2994 RMK
                 AO2 SNB27 CIG 015V025 SLP160 P0000 T10831117 FZRANO $ =
2019-02-18 00:56 METAR KRUT 180556Z AUTO 00000KT 10SM OVC070 M08/M13 A2994 RMK AO2 SLP161
                 T10831128 11072 21083 56016 FZRANO $ =
2019-02-17 23:56 METAR KRUT 180456Z AUTO 32003KT 10SM BKN075 OVC095 M08/M13 A2996 RMK AO2 SLP166
                 T10781128 410441117 FZRANO $ =
2019-02-17 22:56 METAR KRUT 180356Z AUTO 34004KT 10SM OVC100 M08/M13 A2997 RMK AO2 SLP171
                 T10781128 FZRANO $ =
2019-02-17 21:56 METAR KRUT 180256Z AUTO 02003KT 10SM OVC095 M07/M13 A2999 RMK AO2 SLP178
                 T10721128 55017 FZRANO $ =
2019-02-17 20:56 METAR KRUT 180156Z AUTO 34003KT 10SM OVC100 M07/M13 A2999 RMK AO2 SLP178
                 T10721133 FZRANO $ =
2019-02-17 19:56 METAR KRUT 180056Z AUTO 33003KT 10SM BKN110 M07/M13 A3002 RMK AO2 SLP189
                 T10721133 FZRANO $ =
2019-02-17 18:56 METAR KRUT 172356Z AUTO 00000KT 10SM OVC110 M07/M13 A3004 RMK AO2 SLP195
                 T10721133 11044 21072 53001 FZRANO $ =
2019-02-17 17:56 METAR KRUT 172256Z AUTO 35003KT 10SM CLR M07/M13 A3003 RMK AO2 SLP193 T10671133
                 FZRANO $ =
2019-02-17 16:56 METAR KRUT 172156Z AUTO 32005KT 10SM CLR M06/M14 A3003 RMK AO2 SLP192 T10561139
                 FZRANO $ =
2019-02-17 15:56 METAR KRUT 172056Z AUTO 33007KT 10SM CLR M05/M13 A3004 RMK AO2 SLP194 T10501133
                 58014 FZRANO $ =
2019-02-17 14:56 METAR KRUT 171956Z AUTO 35006KT 10SM CLR M05/M14 A3008 RMK AO2 SLP208 T10501139
                 FZRANO $ =
2019-02-17 13:56 METAR KRUT 171856Z AUTO 35005KT 10SM CLR M05/M14 A3008 RMK AO2 SLP209 T10501139
                 FZRANO $ =
2019-02-17 12:56 METAR KRUT 171756Z AUTO 33006KT 10SM CLR M06/M14 A3008 RMK AO2 SLP207 T10561144
                 11056 21117 58020 FZRANO $ =
2019-02-17 11:56 METAR KRUT 171656Z AUTO 34008KT 10SM CLR M06/M14 A3010 RMK AO2 SLP214 T10611139
                 FZRANO $ =
2019-02-17 10:56 METAR KRUT 171556Z AUTO 36006KT 10SM CLR M07/M14 A3014 RMK AO2 SLP226 T10721139
                 FZRANO $ =
2019-02-17 09:56 METAR KRUT 171456Z AUTO 33003KT 10SM CLR M09/M14 A3014 RMK AO2 SLP229 T10891144
                 50012 FZRANO $ =
2019-02-17 08:56 METAR KRUT 171356Z AUTO 36006KT 10SM CLR M10/M14 A3015 RMK AO2 SLP232 T11001144
                 FZRANO $ =
2019-02-17 07:56 METAR KRUT 171256Z AUTO 36006KT 10SM CLR M11/M14 A3014 RMK AO2 SLP231 T11111139
                 FZRANO $ =
2019-02-17 06:56 METAR KRUT 171156Z AUTO 33003KT 10SM CLR M12/M14 A3011 RMK AO2 SLP217 T11171139
                 11072 21117 51016 FZRANO $ =
2019-02-17 05:56 METAR KRUT 171056Z AUTO 00000KT 10SM CLR M11/M13 A3009 RMK AO2 SLP210 T11061133
                 FZRANO $ =

Support USWX by starting your Amazon purchase here.